sensor_id;sensor_type;location;lat;lon;timestamp;temperature;humidity
61201;DHT22;47065;52.898;6.992;2023-02-11T00:02:22;6.90;99.90
61201;DHT22;47065;52.898;6.992;2023-02-11T00:04:48;6.90;99.90
61201;DHT22;47065;52.898;6.992;2023-02-11T00:07:13;6.90;99.90
61201;DHT22;47065;52.898;6.992;2023-02-11T00:09:39;6.90;99.90
61201;DHT22;47065;52.898;6.992;2023-02-11T00:12:05;6.90;99.90
61201;DHT22;47065;52.898;6.992;2023-02-11T00:14:30;6.90;99.90
61201;DHT22;47065;52.898;6.992;2023-02-11T00:16:56;6.90;99.90
61201;DHT22;47065;52.898;6.992;2023-02-11T00:19:24;7.00;99.90
61201;DHT22;47065;52.898;6.992;2023-02-11T00:21:50;7.00;99.90
61201;DHT22;47065;52.898;6.992;2023-02-11T00:24:16;7.00;99.90
61201;DHT22;47065;52.898;6.992;2023-02-11T00:26:41;7.00;99.90
61201;DHT22;47065;52.898;6.992;2023-02-11T00:29:08;7.00;99.90
61201;DHT22;47065;52.898;6.992;2023-02-11T00:31:34;7.00;99.90
61201;DHT22;47065;52.898;6.992;2023-02-11T00:34:00;7.00;99.90
61201;DHT22;47065;52.898;6.992;2023-02-11T00:36:28;7.10;99.90
61201;DHT22;47065;52.898;6.992;2023-02-11T00:38:55;7.00;99.90
61201;DHT22;47065;52.898;6.992;2023-02-11T00:41:22;7.00;99.90
61201;DHT22;47065;52.898;6.992;2023-02-11T00:43:48;7.00;99.90
61201;DHT22;47065;52.898;6.992;2023-02-11T00:46:14;7.10;99.90
61201;DHT22;47065;52.898;6.992;2023-02-11T00:48:40;7.10;99.90
61201;DHT22;47065;52.898;6.992;2023-02-11T00:51:06;7.10;99.90
61201;DHT22;47065;52.898;6.992;2023-02-11T00:53:35;7.10;99.90
61201;DHT22;47065;52.898;6.992;2023-02-11T00:56:01;7.10;99.90
61201;DHT22;47065;52.898;6.992;2023-02-11T00:58:27;7.10;99.90
61201;DHT22;47065;52.898;6.992;2023-02-11T01:00:54;7.10;99.90
61201;DHT22;47065;52.898;6.992;2023-02-11T01:03:20;7.10;99.90
61201;DHT22;47065;52.898;6.992;2023-02-11T01:05:45;7.10;99.90
61201;DHT22;47065;52.898;6.992;2023-02-11T01:08:14;7.20;99.90
61201;DHT22;47065;52.898;6.992;2023-02-11T01:10:39;7.20;99.90
61201;DHT22;47065;52.898;6.992;2023-02-11T01:13:05;7.20;99.90
61201;DHT22;47065;52.898;6.992;2023-02-11T01:15:32;7.20;99.90
61201;DHT22;47065;52.898;6.992;2023-02-11T01:17:57;7.20;99.90
61201;DHT22;47065;52.898;6.992;2023-02-11T01:20:25;7.20;99.90
61201;DHT22;47065;52.898;6.992;2023-02-11T01:22:51;7.20;99.90
61201;DHT22;47065;52.898;6.992;2023-02-11T01:25:20;7.10;99.90
61201;DHT22;47065;52.898;6.992;2023-02-11T01:27:46;7.10;99.90
61201;DHT22;47065;52.898;6.992;2023-02-11T01:30:13;7.10;99.90
61201;DHT22;47065;52.898;6.992;2023-02-11T01:32:39;7.10;99.90
61201;DHT22;47065;52.898;6.992;2023-02-11T01:35:05;7.10;99.90
61201;DHT22;47065;52.898;6.992;2023-02-11T01:37:35;7.10;99.90
61201;DHT22;47065;52.898;6.992;2023-02-11T01:40:02;7.10;99.90
61201;DHT22;47065;52.898;6.992;2023-02-11T01:42:28;7.10;99.90
61201;DHT22;47065;52.898;6.992;2023-02-11T01:44:55;7.10;99.90
61201;DHT22;47065;52.898;6.992;2023-02-11T01:47:21;7.10;99.90
61201;DHT22;47065;52.898;6.992;2023-02-11T01:49:58;7.10;99.90
61201;DHT22;47065;52.898;6.992;2023-02-11T01:52:37;7.10;99.90
61201;DHT22;47065;52.898;6.992;2023-02-11T01:55:48;7.10;99.90
61201;DHT22;47065;52.898;6.992;2023-02-11T01:58:40;7.10;99.90
61201;DHT22;47065;52.898;6.992;2023-02-11T02:01:12;7.10;99.90
61201;DHT22;47065;52.898;6.992;2023-02-11T02:03:41;7.10;99.90
61201;DHT22;47065;52.898;6.992;2023-02-11T02:06:23;7.10;99.90
61201;DHT22;47065;52.898;6.992;2023-02-11T02:08:55;7.20;99.90
61201;DHT22;47065;52.898;6.992;2023-02-11T02:11:24;7.20;99.90
61201;DHT22;47065;52.898;6.992;2023-02-11T02:13:50;7.20;99.90
61201;DHT22;47065;52.898;6.992;2023-02-11T02:16:28;7.30;99.90
61201;DHT22;47065;52.898;6.992;2023-02-11T02:22:01;7.20;99.90
61201;DHT22;47065;52.898;6.992;2023-02-11T02:24:54;7.30;99.90
61201;DHT22;47065;52.898;6.992;2023-02-11T02:27:28;7.30;99.90
61201;DHT22;47065;52.898;6.992;2023-02-11T02:35:47;7.30;99.90
61201;DHT22;47065;52.898;6.992;2023-02-11T02:40:45;7.20;99.90
61201;DHT22;47065;52.898;6.992;2023-02-11T02:43:12;7.20;99.90
61201;DHT22;47065;52.898;6.992;2023-02-11T02:45:38;7.20;99.90
61201;DHT22;47065;52.898;6.992;2023-02-11T02:48:05;7.20;99.90
61201;DHT22;47065;52.898;6.992;2023-02-11T02:50:34;7.20;99.90
61201;DHT22;47065;52.898;6.992;2023-02-11T02:55:59;7.20;99.90
61201;DHT22;47065;52.898;6.992;2023-02-11T03:06:34;7.30;99.90
61201;DHT22;47065;52.898;6.992;2023-02-11T03:09:18;7.20;99.90
61201;DHT22;47065;52.898;6.992;2023-02-11T03:11:44;7.20;99.90
61201;DHT22;47065;52.898;6.992;2023-02-11T03:14:12;7.20;99.90
61201;DHT22;47065;52.898;6.992;2023-02-11T03:16:40;7.20;99.90
61201;DHT22;47065;52.898;6.992;2023-02-11T03:21:40;7.20;99.90
61201;DHT22;47065;52.898;6.992;2023-02-11T03:24:11;7.20;99.90
61201;DHT22;47065;52.898;6.992;2023-02-11T03:26:51;7.20;99.90
61201;DHT22;47065;52.898;6.992;2023-02-11T03:29:38;7.20;99.90
61201;DHT22;47065;52.898;6.992;2023-02-11T03:34:56;7.20;99.90
61201;DHT22;47065;52.898;6.992;2023-02-11T03:42:41;7.30;99.90
61201;DHT22;47065;52.898;6.992;2023-02-11T03:45:11;7.30;99.90
61201;DHT22;47065;52.898;6.992;2023-02-11T03:47:41;7.30;99.90
61201;DHT22;47065;52.898;6.992;2023-02-11T03:50:09;7.30;99.90
61201;DHT22;47065;52.898;6.992;2023-02-11T03:52:37;7.30;99.90
61201;DHT22;47065;52.898;6.992;2023-02-11T03:55:14;7.30;99.90
61201;DHT22;47065;52.898;6.992;2023-02-11T03:57:43;7.30;99.90
61201;DHT22;47065;52.898;6.992;2023-02-11T04:00:10;7.30;99.90
61201;DHT22;47065;52.898;6.992;2023-02-11T04:02:37;7.30;99.90
61201;DHT22;47065;52.898;6.992;2023-02-11T04:05:04;7.30;99.90
61201;DHT22;47065;52.898;6.992;2023-02-11T04:07:31;7.30;99.90
61201;DHT22;47065;52.898;6.992;2023-02-11T04:09:57;7.30;99.90
61201;DHT22;47065;52.898;6.992;2023-02-11T04:12:25;7.30;99.90
61201;DHT22;47065;52.898;6.992;2023-02-11T04:14:51;7.30;99.90
61201;DHT22;47065;52.898;6.992;2023-02-11T04:17:19;7.30;99.90
61201;DHT22;47065;52.898;6.992;2023-02-11T04:19:45;7.30;99.90
61201;DHT22;47065;52.898;6.992;2023-02-11T04:22:11;7.30;99.90
61201;DHT22;47065;52.898;6.992;2023-02-11T04:24:37;7.30;99.90
61201;DHT22;47065;52.898;6.992;2023-02-11T04:27:03;7.30;99.90
61201;DHT22;47065;52.898;6.992;2023-02-11T04:29:28;7.30;99.90
61201;DHT22;47065;52.898;6.992;2023-02-11T04:31:54;7.30;99.90
61201;DHT22;47065;52.898;6.992;2023-02-11T04:34:21;7.30;99.90
61201;DHT22;47065;52.898;6.992;2023-02-11T04:36:46;7.30;99.90
61201;DHT22;47065;52.898;6.992;2023-02-11T04:39:12;7.30;99.90
61201;DHT22;47065;52.898;6.992;2023-02-11T04:41:37;7.30;99.90
61201;DHT22;47065;52.898;6.992;2023-02-11T04:44:04;7.30;99.90
61201;DHT22;47065;52.898;6.992;2023-02-11T04:46:30;7.30;99.90
61201;DHT22;47065;52.898;6.992;2023-02-11T04:48:56;7.30;99.90
61201;DHT22;47065;52.898;6.992;2023-02-11T04:51:22;7.30;99.90
61201;DHT22;47065;52.898;6.992;2023-02-11T04:53:47;7.30;99.90
61201;DHT22;47065;52.898;6.992;2023-02-11T04:56:13;7.40;99.90
61201;DHT22;47065;52.898;6.992;2023-02-11T04:58:39;7.40;99.90
61201;DHT22;47065;52.898;6.992;2023-02-11T05:01:09;7.40;99.90
61201;DHT22;47065;52.898;6.992;2023-02-11T05:03:36;7.40;99.90
61201;DHT22;47065;52.898;6.992;2023-02-11T05:06:02;7.30;99.90
61201;DHT22;47065;52.898;6.992;2023-02-11T05:08:28;7.30;99.90
61201;DHT22;47065;52.898;6.992;2023-02-11T05:10:54;7.30;99.90
61201;DHT22;47065;52.898;6.992;2023-02-11T05:13:20;7.40;99.90
61201;DHT22;47065;52.898;6.992;2023-02-11T05:15:46;7.40;99.90
61201;DHT22;47065;52.898;6.992;2023-02-11T05:18:11;7.40;99.90
61201;DHT22;47065;52.898;6.992;2023-02-11T05:20:42;7.40;99.90
61201;DHT22;47065;52.898;6.992;2023-02-11T05:23:09;7.40;99.90
61201;DHT22;47065;52.898;6.992;2023-02-11T05:25:35;7.40;99.90
61201;DHT22;47065;52.898;6.992;2023-02-11T05:28:03;7.30;99.90
61201;DHT22;47065;52.898;6.992;2023-02-11T05:30:39;7.30;99.90
61201;DHT22;47065;52.898;6.992;2023-02-11T05:33:17;7.30;99.90
61201;DHT22;47065;52.898;6.992;2023-02-11T05:36:01;7.30;99.90
61201;DHT22;47065;52.898;6.992;2023-02-11T05:38:27;7.30;99.90
61201;DHT22;47065;52.898;6.992;2023-02-11T05:44:09;7.30;99.90
61201;DHT22;47065;52.898;6.992;2023-02-11T05:46:35;7.30;99.90
61201;DHT22;47065;52.898;6.992;2023-02-11T05:49:00;7.30;99.90
61201;DHT22;47065;52.898;6.992;2023-02-11T05:51:26;7.30;99.90
61201;DHT22;47065;52.898;6.992;2023-02-11T05:53:52;7.30;99.90
61201;DHT22;47065;52.898;6.992;2023-02-11T05:56:18;7.20;99.90
61201;DHT22;47065;52.898;6.992;2023-02-11T05:58:46;7.20;99.90
61201;DHT22;47065;52.898;6.992;2023-02-11T06:01:12;7.20;99.90
61201;DHT22;47065;52.898;6.992;2023-02-11T06:03:37;7.20;99.90
61201;DHT22;47065;52.898;6.992;2023-02-11T06:06:03;7.20;99.90
61201;DHT22;47065;52.898;6.992;2023-02-11T06:08:29;7.20;99.90
61201;DHT22;47065;52.898;6.992;2023-02-11T06:10:55;7.20;99.90
61201;DHT22;47065;52.898;6.992;2023-02-11T06:13:20;7.20;99.90
61201;DHT22;47065;52.898;6.992;2023-02-11T06:15:58;7.20;99.90
61201;DHT22;47065;52.898;6.992;2023-02-11T06:18:24;7.20;99.90
61201;DHT22;47065;52.898;6.992;2023-02-11T06:20:50;7.20;99.90
61201;DHT22;47065;52.898;6.992;2023-02-11T06:23:16;7.10;99.90
61201;DHT22;47065;52.898;6.992;2023-02-11T06:25:47;7.20;99.90
61201;DHT22;47065;52.898;6.992;2023-02-11T06:28:12;7.20;99.90
61201;DHT22;47065;52.898;6.992;2023-02-11T06:30:38;7.20;99.90
61201;DHT22;47065;52.898;6.992;2023-02-11T06:33:04;7.10;99.90
61201;DHT22;47065;52.898;6.992;2023-02-11T06:35:30;7.10;99.90
61201;DHT22;47065;52.898;6.992;2023-02-11T06:37:55;7.10;99.90
61201;DHT22;47065;52.898;6.992;2023-02-11T06:40:21;7.10;99.90
61201;DHT22;47065;52.898;6.992;2023-02-11T06:42:47;7.20;99.90
61201;DHT22;47065;52.898;6.992;2023-02-11T06:45:12;7.10;99.90
61201;DHT22;47065;52.898;6.992;2023-02-11T06:47:41;7.10;99.90
61201;DHT22;47065;52.898;6.992;2023-02-11T06:50:11;7.10;99.90
61201;DHT22;47065;52.898;6.992;2023-02-11T06:52:37;7.10;99.90
61201;DHT22;47065;52.898;6.992;2023-02-11T06:55:03;7.10;99.90
61201;DHT22;47065;52.898;6.992;2023-02-11T06:57:30;7.10;99.90
61201;DHT22;47065;52.898;6.992;2023-02-11T06:59:55;7.10;99.90
61201;DHT22;47065;52.898;6.992;2023-02-11T07:02:21;7.10;99.90
61201;DHT22;47065;52.898;6.992;2023-02-11T07:04:47;7.10;99.90
61201;DHT22;47065;52.898;6.992;2023-02-11T07:07:12;7.10;99.90
61201;DHT22;47065;52.898;6.992;2023-02-11T07:09:38;7.10;99.90
61201;DHT22;47065;52.898;6.992;2023-02-11T07:12:04;7.10;99.90
61201;DHT22;47065;52.898;6.992;2023-02-11T07:14:29;7.10;99.90
61201;DHT22;47065;52.898;6.992;2023-02-11T07:16:55;7.10;99.90
61201;DHT22;47065;52.898;6.992;2023-02-11T07:19:21;7.10;99.90
61201;DHT22;47065;52.898;6.992;2023-02-11T07:21:46;7.20;99.90
61201;DHT22;47065;52.898;6.992;2023-02-11T07:24:13;7.10;99.90
61201;DHT22;47065;52.898;6.992;2023-02-11T07:26:39;7.20;99.90
61201;DHT22;47065;52.898;6.992;2023-02-11T07:29:05;7.20;99.90
61201;DHT22;47065;52.898;6.992;2023-02-11T07:31:31;7.20;99.90
61201;DHT22;47065;52.898;6.992;2023-02-11T07:33:59;7.20;99.90
61201;DHT22;47065;52.898;6.992;2023-02-11T07:36:27;7.20;99.90
61201;DHT22;47065;52.898;6.992;2023-02-11T07:38:53;7.20;99.90
61201;DHT22;47065;52.898;6.992;2023-02-11T07:41:20;7.30;99.90
61201;DHT22;47065;52.898;6.992;2023-02-11T07:43:47;7.30;99.90
61201;DHT22;47065;52.898;6.992;2023-02-11T07:48:41;7.30;99.90
61201;DHT22;47065;52.898;6.992;2023-02-11T07:51:14;7.30;99.90
61201;DHT22;47065;52.898;6.992;2023-02-11T07:53:40;7.40;99.90
61201;DHT22;47065;52.898;6.992;2023-02-11T07:56:07;7.40;99.90
61201;DHT22;47065;52.898;6.992;2023-02-11T07:58:34;7.40;99.90
61201;DHT22;47065;52.898;6.992;2023-02-11T08:01:11;7.40;99.90
61201;DHT22;47065;52.898;6.992;2023-02-11T08:03:38;7.50;99.90
61201;DHT22;47065;52.898;6.992;2023-02-11T08:06:12;7.50;99.90
61201;DHT22;47065;52.898;6.992;2023-02-11T08:08:38;7.60;99.90
61201;DHT22;47065;52.898;6.992;2023-02-11T08:11:08;7.50;99.90
61201;DHT22;47065;52.898;6.992;2023-02-11T08:13:34;7.60;99.90
61201;DHT22;47065;52.898;6.992;2023-02-11T08:16:01;7.60;99.90
61201;DHT22;47065;52.898;6.992;2023-02-11T08:18:27;7.60;99.90
61201;DHT22;47065;52.898;6.992;2023-02-11T08:20:52;7.60;99.90
61201;DHT22;47065;52.898;6.992;2023-02-11T08:23:21;7.70;99.90
61201;DHT22;47065;52.898;6.992;2023-02-11T08:25:47;7.60;99.90
61201;DHT22;47065;52.898;6.992;2023-02-11T08:28:15;7.70;99.90
61201;DHT22;47065;52.898;6.992;2023-02-11T08:30:41;7.70;99.90
61201;DHT22;47065;52.898;6.992;2023-02-11T08:33:06;7.70;99.90
61201;DHT22;47065;52.898;6.992;2023-02-11T08:35:34;7.80;99.90
61201;DHT22;47065;52.898;6.992;2023-02-11T08:38:00;7.80;99.90
61201;DHT22;47065;52.898;6.992;2023-02-11T08:40:25;7.70;99.90
61201;DHT22;47065;52.898;6.992;2023-02-11T08:42:51;7.80;99.90
61201;DHT22;47065;52.898;6.992;2023-02-11T08:45:17;7.80;99.90
61201;DHT22;47065;52.898;6.992;2023-02-11T08:47:43;7.80;99.90
61201;DHT22;47065;52.898;6.992;2023-02-11T08:50:08;7.80;99.90
61201;DHT22;47065;52.898;6.992;2023-02-11T08:52:35;7.80;99.90
61201;DHT22;47065;52.898;6.992;2023-02-11T08:55:00;7.80;99.90
61201;DHT22;47065;52.898;6.992;2023-02-11T08:57:26;7.80;99.90
61201;DHT22;47065;52.898;6.992;2023-02-11T08:59:52;7.80;99.90
61201;DHT22;47065;52.898;6.992;2023-02-11T09:02:18;7.80;99.90
61201;DHT22;47065;52.898;6.992;2023-02-11T09:04:43;7.80;99.90
61201;DHT22;47065;52.898;6.992;2023-02-11T09:07:09;7.90;99.90
61201;DHT22;47065;52.898;6.992;2023-02-11T09:09:34;7.90;99.90
61201;DHT22;47065;52.898;6.992;2023-02-11T09:12:00;7.90;99.90
61201;DHT22;47065;52.898;6.992;2023-02-11T09:14:28;8.00;99.90
61201;DHT22;47065;52.898;6.992;2023-02-11T09:16:54;8.00;99.90
61201;DHT22;47065;52.898;6.992;2023-02-11T09:19:20;7.90;99.90
61201;DHT22;47065;52.898;6.992;2023-02-11T09:21:47;8.00;99.90
61201;DHT22;47065;52.898;6.992;2023-02-11T09:24:13;7.90;99.90
61201;DHT22;47065;52.898;6.992;2023-02-11T09:26:41;8.00;99.90
61201;DHT22;47065;52.898;6.992;2023-02-11T09:29:07;7.90;99.90
61201;DHT22;47065;52.898;6.992;2023-02-11T09:31:33;8.00;99.90
61201;DHT22;47065;52.898;6.992;2023-02-11T09:34:03;8.00;99.90
61201;DHT22;47065;52.898;6.992;2023-02-11T09:36:31;8.00;99.90
61201;DHT22;47065;52.898;6.992;2023-02-11T09:39:02;8.10;99.90
61201;DHT22;47065;52.898;6.992;2023-02-11T09:41:34;8.10;99.90
61201;DHT22;47065;52.898;6.992;2023-02-11T09:44:04;8.10;99.90
61201;DHT22;47065;52.898;6.992;2023-02-11T09:46:38;8.10;99.90
61201;DHT22;47065;52.898;6.992;2023-02-11T09:49:05;8.10;99.90
61201;DHT22;47065;52.898;6.992;2023-02-11T09:51:45;8.10;99.90
61201;DHT22;47065;52.898;6.992;2023-02-11T09:54:35;8.20;99.90
61201;DHT22;47065;52.898;6.992;2023-02-11T09:57:02;8.20;99.90
61201;DHT22;47065;52.898;6.992;2023-02-11T09:59:27;8.20;99.90
61201;DHT22;47065;52.898;6.992;2023-02-11T10:01:58;8.20;99.90
61201;DHT22;47065;52.898;6.992;2023-02-11T10:06:56;8.30;99.90
61201;DHT22;47065;52.898;6.992;2023-02-11T10:09:53;8.30;99.90
61201;DHT22;47065;52.898;6.992;2023-02-11T10:12:46;8.30;99.90
61201;DHT22;47065;52.898;6.992;2023-02-11T10:20:36;8.40;99.90
61201;DHT22;47065;52.898;6.992;2023-02-11T10:23:22;8.50;99.90
61201;DHT22;47065;52.898;6.992;2023-02-11T10:25:54;8.50;99.90
61201;DHT22;47065;52.898;6.992;2023-02-11T10:28:43;8.60;99.90
61201;DHT22;47065;52.898;6.992;2023-02-11T10:31:14;8.60;99.90
61201;DHT22;47065;52.898;6.992;2023-02-11T10:34:01;8.60;99.90
61201;DHT22;47065;52.898;6.992;2023-02-11T10:36:32;8.60;99.90
61201;DHT22;47065;52.898;6.992;2023-02-11T10:39:11;8.60;99.90
61201;DHT22;47065;52.898;6.992;2023-02-11T10:41:41;8.60;99.90
61201;DHT22;47065;52.898;6.992;2023-02-11T10:44:31;8.60;99.90
61201;DHT22;47065;52.898;6.992;2023-02-11T10:46:59;8.70;99.90
61201;DHT22;47065;52.898;6.992;2023-02-11T10:49:41;8.70;99.90
61201;DHT22;47065;52.898;6.992;2023-02-11T10:54:38;8.80;99.90
61201;DHT22;47065;52.898;6.992;2023-02-11T10:57:04;8.80;99.90
61201;DHT22;47065;52.898;6.992;2023-02-11T10:59:36;8.80;99.90
61201;DHT22;47065;52.898;6.992;2023-02-11T11:02:22;8.80;99.90
61201;DHT22;47065;52.898;6.992;2023-02-11T11:04:50;8.80;99.90
61201;DHT22;47065;52.898;6.992;2023-02-11T11:07:23;8.90;99.90
61201;DHT22;47065;52.898;6.992;2023-02-11T11:09:52;8.90;99.90
61201;DHT22;47065;52.898;6.992;2023-02-11T11:15:11;8.90;99.90
61201;DHT22;47065;52.898;6.992;2023-02-11T11:17:38;8.90;99.90
61201;DHT22;47065;52.898;6.992;2023-02-11T11:22:38;8.90;99.90
61201;DHT22;47065;52.898;6.992;2023-02-11T11:25:04;9.00;99.90
61201;DHT22;47065;52.898;6.992;2023-02-11T11:27:30;9.00;99.90
61201;DHT22;47065;52.898;6.992;2023-02-11T11:29:57;9.00;99.90
61201;DHT22;47065;52.898;6.992;2023-02-11T11:32:26;9.00;99.90
61201;DHT22;47065;52.898;6.992;2023-02-11T11:34:54;9.10;99.90
61201;DHT22;47065;52.898;6.992;2023-02-11T11:37:32;9.10;99.90
61201;DHT22;47065;52.898;6.992;2023-02-11T11:40:09;9.10;99.90
61201;DHT22;47065;52.898;6.992;2023-02-11T11:42:37;9.10;99.90
61201;DHT22;47065;52.898;6.992;2023-02-11T11:47:58;9.20;99.90
61201;DHT22;47065;52.898;6.992;2023-02-11T11:55:38;9.30;99.90
61201;DHT22;47065;52.898;6.992;2023-02-11T11:58:17;9.30;99.90
61201;DHT22;47065;52.898;6.992;2023-02-11T12:00:58;9.20;99.90
61201;DHT22;47065;52.898;6.992;2023-02-11T12:04:01;9.30;99.90
61201;DHT22;47065;52.898;6.992;2023-02-11T12:20:42;9.30;99.90
61201;DHT22;47065;52.898;6.992;2023-02-11T12:26:12;9.40;99.90
61201;DHT22;47065;52.898;6.992;2023-02-11T12:28:59;9.40;99.90
61201;DHT22;47065;52.898;6.992;2023-02-11T12:37:03;9.40;99.90
61201;DHT22;47065;52.898;6.992;2023-02-11T12:39:33;9.50;99.90
61201;DHT22;47065;52.898;6.992;2023-02-11T12:42:08;9.50;99.90
61201;DHT22;47065;52.898;6.992;2023-02-11T12:51:03;9.60;99.90
61201;DHT22;47065;52.898;6.992;2023-02-11T12:56:45;9.60;99.90
61201;DHT22;47065;52.898;6.992;2023-02-11T13:02:16;9.70;99.90
61201;DHT22;47065;52.898;6.992;2023-02-11T13:04:53;9.70;99.90
61201;DHT22;47065;52.898;6.992;2023-02-11T13:07:50;9.70;99.90
61201;DHT22;47065;52.898;6.992;2023-02-11T13:10:33;9.70;99.90
61201;DHT22;47065;52.898;6.992;2023-02-11T13:13:02;9.70;99.90
61201;DHT22;47065;52.898;6.992;2023-02-11T13:15:48;9.80;99.90
61201;DHT22;47065;52.898;6.992;2023-02-11T13:29:22;9.90;99.90
61201;DHT22;47065;52.898;6.992;2023-02-11T13:31:57;10.00;99.90
61201;DHT22;47065;52.898;6.992;2023-02-11T13:37:35;10.10;99.90
61201;DHT22;47065;52.898;6.992;2023-02-11T13:42:48;10.20;99.90
61201;DHT22;47065;52.898;6.992;2023-02-11T13:45:44;10.20;99.90
61201;DHT22;47065;52.898;6.992;2023-02-11T13:48:19;10.20;99.90
61201;DHT22;47065;52.898;6.992;2023-02-11T13:50:49;10.30;99.90
61201;DHT22;47065;52.898;6.992;2023-02-11T13:53:15;10.30;99.90
61201;DHT22;47065;52.898;6.992;2023-02-11T13:55:47;10.30;99.90
61201;DHT22;47065;52.898;6.992;2023-02-11T14:14:24;10.40;99.90
61201;DHT22;47065;52.898;6.992;2023-02-11T14:22:03;10.30;99.90
61201;DHT22;47065;52.898;6.992;2023-02-11T14:27:04;10.30;99.90
61201;DHT22;47065;52.898;6.992;2023-02-11T14:35:31;10.10;99.90
61201;DHT22;47065;52.898;6.992;2023-02-11T14:38:04;10.10;99.90
61201;DHT22;47065;52.898;6.992;2023-02-11T14:41:04;10.10;99.90
61201;DHT22;47065;52.898;6.992;2023-02-11T14:43:37;10.10;99.90
61201;DHT22;47065;52.898;6.992;2023-02-11T14:46:04;10.10;99.90
61201;DHT22;47065;52.898;6.992;2023-02-11T14:48:33;10.00;99.90
61201;DHT22;47065;52.898;6.992;2023-02-11T14:51:11;10.00;99.90
61201;DHT22;47065;52.898;6.992;2023-02-11T14:53:45;10.00;99.90
61201;DHT22;47065;52.898;6.992;2023-02-11T14:56:23;10.00;99.90
61201;DHT22;47065;52.898;6.992;2023-02-11T14:58:52;10.00;99.90
61201;DHT22;47065;52.898;6.992;2023-02-11T15:01:27;9.90;99.90
61201;DHT22;47065;52.898;6.992;2023-02-11T15:03:56;9.90;99.90
61201;DHT22;47065;52.898;6.992;2023-02-11T15:06:37;9.90;99.90
61201;DHT22;47065;52.898;6.992;2023-02-11T15:11:46;9.80;99.90
61201;DHT22;47065;52.898;6.992;2023-02-11T15:14:26;9.80;99.90
61201;DHT22;47065;52.898;6.992;2023-02-11T15:16:55;9.80;99.90
61201;DHT22;47065;52.898;6.992;2023-02-11T15:19:44;9.80;99.90
61201;DHT22;47065;52.898;6.992;2023-02-11T15:22:21;9.80;99.90
61201;DHT22;47065;52.898;6.992;2023-02-11T15:27:40;9.70;99.90
61201;DHT22;47065;52.898;6.992;2023-02-11T15:30:28;9.70;99.90
61201;DHT22;47065;52.898;6.992;2023-02-11T15:32:56;9.70;99.90
61201;DHT22;47065;52.898;6.992;2023-02-11T15:35:30;9.70;99.90
61201;DHT22;47065;52.898;6.992;2023-02-11T15:37:58;9.70;99.90
61201;DHT22;47065;52.898;6.992;2023-02-11T15:40:27;9.70;99.90
61201;DHT22;47065;52.898;6.992;2023-02-11T15:45:32;9.60;99.90
61201;DHT22;47065;52.898;6.992;2023-02-11T15:48:18;9.60;99.90
61201;DHT22;47065;52.898;6.992;2023-02-11T15:50:54;9.60;99.90
61201;DHT22;47065;52.898;6.992;2023-02-11T15:53:42;9.60;99.90
61201;DHT22;47065;52.898;6.992;2023-02-11T15:56:24;9.60;99.90
61201;DHT22;47065;52.898;6.992;2023-02-11T15:58:52;9.60;99.90
61201;DHT22;47065;52.898;6.992;2023-02-11T16:01:31;9.60;99.90
61201;DHT22;47065;52.898;6.992;2023-02-11T16:03:57;9.60;99.90
61201;DHT22;47065;52.898;6.992;2023-02-11T16:06:38;9.50;99.90
61201;DHT22;47065;52.898;6.992;2023-02-11T16:16:49;9.50;99.90
61201;DHT22;47065;52.898;6.992;2023-02-11T16:19:18;9.40;99.90
61201;DHT22;47065;52.898;6.992;2023-02-11T16:21:44;9.50;99.90
61201;DHT22;47065;52.898;6.992;2023-02-11T16:24:20;9.50;99.90
61201;DHT22;47065;52.898;6.992;2023-02-11T16:26:49;9.40;99.90
61201;DHT22;47065;52.898;6.992;2023-02-11T16:29:18;9.30;99.90
61201;DHT22;47065;52.898;6.992;2023-02-11T16:31:47;9.30;99.90
61201;DHT22;47065;52.898;6.992;2023-02-11T16:34:24;9.30;99.90
61201;DHT22;47065;52.898;6.992;2023-02-11T16:36:51;9.30;99.90
61201;DHT22;47065;52.898;6.992;2023-02-11T16:39:17;9.30;99.90
61201;DHT22;47065;52.898;6.992;2023-02-11T16:41:46;9.20;99.90
61201;DHT22;47065;52.898;6.992;2023-02-11T16:44:12;9.20;99.90
61201;DHT22;47065;52.898;6.992;2023-02-11T16:46:37;9.20;99.90
61201;DHT22;47065;52.898;6.992;2023-02-11T16:49:30;9.10;99.90
61201;DHT22;47065;52.898;6.992;2023-02-11T16:52:01;9.10;99.90
61201;DHT22;47065;52.898;6.992;2023-02-11T16:54:29;9.10;99.90
61201;DHT22;47065;52.898;6.992;2023-02-11T16:56:56;9.00;99.90
61201;DHT22;47065;52.898;6.992;2023-02-11T16:59:22;9.00;99.90
61201;DHT22;47065;52.898;6.992;2023-02-11T17:01:49;9.10;99.90
61201;DHT22;47065;52.898;6.992;2023-02-11T17:04:22;9.10;99.90
61201;DHT22;47065;52.898;6.992;2023-02-11T17:06:49;9.10;99.90
61201;DHT22;47065;52.898;6.992;2023-02-11T17:09:20;9.10;99.90
61201;DHT22;47065;52.898;6.992;2023-02-11T17:11:46;9.10;99.90
61201;DHT22;47065;52.898;6.992;2023-02-11T17:14:12;9.00;99.90
61201;DHT22;47065;52.898;6.992;2023-02-11T17:16:38;9.00;99.90
61201;DHT22;47065;52.898;6.992;2023-02-11T17:19:04;8.90;99.90
61201;DHT22;47065;52.898;6.992;2023-02-11T17:21:30;8.90;99.90
61201;DHT22;47065;52.898;6.992;2023-02-11T17:23:57;8.90;99.90
61201;DHT22;47065;52.898;6.992;2023-02-11T17:26:23;8.90;99.90
61201;DHT22;47065;52.898;6.992;2023-02-11T17:28:49;8.80;99.90
61201;DHT22;47065;52.898;6.992;2023-02-11T17:31:14;8.80;99.90
61201;DHT22;47065;52.898;6.992;2023-02-11T17:33:41;8.70;99.90
61201;DHT22;47065;52.898;6.992;2023-02-11T17:36:08;8.70;99.90
61201;DHT22;47065;52.898;6.992;2023-02-11T17:38:35;8.70;99.90
61201;DHT22;47065;52.898;6.992;2023-02-11T17:41:03;8.70;99.90
61201;DHT22;47065;52.898;6.992;2023-02-11T17:43:29;8.70;99.90
61201;DHT22;47065;52.898;6.992;2023-02-11T17:45:56;8.60;99.90
61201;DHT22;47065;52.898;6.992;2023-02-11T17:48:22;8.60;99.90
61201;DHT22;47065;52.898;6.992;2023-02-11T17:50:48;8.60;99.90
61201;DHT22;47065;52.898;6.992;2023-02-11T17:53:14;8.60;99.90
61201;DHT22;47065;52.898;6.992;2023-02-11T17:55:39;8.60;99.90
61201;DHT22;47065;52.898;6.992;2023-02-11T17:58:05;8.50;99.90
61201;DHT22;47065;52.898;6.992;2023-02-11T18:00:31;8.50;99.90
61201;DHT22;47065;52.898;6.992;2023-02-11T18:02:57;8.50;99.90
61201;DHT22;47065;52.898;6.992;2023-02-11T18:05:27;8.50;99.90
61201;DHT22;47065;52.898;6.992;2023-02-11T18:07:53;8.50;99.90
61201;DHT22;47065;52.898;6.992;2023-02-11T18:10:20;8.50;99.90
61201;DHT22;47065;52.898;6.992;2023-02-11T18:12:45;8.50;99.90
61201;DHT22;47065;52.898;6.992;2023-02-11T18:15:11;8.50;99.90
61201;DHT22;47065;52.898;6.992;2023-02-11T18:17:37;8.50;99.90
61201;DHT22;47065;52.898;6.992;2023-02-11T18:20:11;8.50;99.90
61201;DHT22;47065;52.898;6.992;2023-02-11T18:22:37;8.40;99.90
61201;DHT22;47065;52.898;6.992;2023-02-11T18:25:10;8.40;99.90
61201;DHT22;47065;52.898;6.992;2023-02-11T18:27:36;8.40;99.90
61201;DHT22;47065;52.898;6.992;2023-02-11T18:30:01;8.40;99.90
61201;DHT22;47065;52.898;6.992;2023-02-11T18:32:27;8.40;99.90
61201;DHT22;47065;52.898;6.992;2023-02-11T18:34:53;8.40;99.90
61201;DHT22;47065;52.898;6.992;2023-02-11T18:37:18;8.40;99.90
61201;DHT22;47065;52.898;6.992;2023-02-11T18:39:44;8.30;99.90
61201;DHT22;47065;52.898;6.992;2023-02-11T18:42:09;8.30;99.90